createdAt,value
2023-05-02T00:00:36.583Z,1.17
2023-05-02T00:01:36.635Z,1.15
2023-05-02T00:02:36.785Z,1.34
2023-05-02T00:03:36.806Z,1.18
2023-05-02T00:04:36.838Z,1.38
2023-05-02T00:05:36.875Z,1.21
2023-05-02T00:06:36.975Z,1.42
2023-05-02T00:07:37.027Z,1.46
2023-05-02T00:08:37.044Z,1.35
2023-05-02T00:09:37.121Z,1.25
2023-05-02T00:10:37.179Z,1.05
2023-05-02T00:11:37.230Z,1.47
2023-05-02T00:12:37.296Z,1.35
2023-05-02T00:13:37.356Z,1.42
2023-05-02T00:14:37.407Z,1.41
2023-05-02T00:15:37.465Z,1.34
2023-05-02T00:16:37.546Z,1.35
2023-05-02T00:17:37.575Z,1.30
2023-05-02T00:18:37.605Z,1.10
2023-05-02T00:19:37.684Z,1.14
2023-05-02T00:20:37.654Z,1.33
2023-05-02T00:21:37.719Z,1.24
2023-05-02T00:22:37.773Z,1.64
2023-05-02T00:23:37.850Z,1.37
2023-05-02T00:24:37.869Z,1.45
2023-05-02T00:25:37.919Z,1.26
2023-05-02T00:26:38.031Z,1.11
2023-05-02T00:27:38.014Z,1.28
2023-05-02T00:28:38.079Z,1.15
2023-05-02T00:29:38.114Z,1.17
2023-05-02T00:30:38.191Z,1.39
2023-05-02T00:31:38.290Z,1.07
2023-05-02T00:32:38.289Z,1.19
2023-05-02T00:33:38.329Z,1.28
2023-05-02T00:34:38.384Z,1.42
2023-05-02T00:35:38.443Z,1.09
2023-05-02T00:36:38.500Z,1.33
2023-05-02T00:37:38.543Z,0.95
2023-05-02T00:38:38.617Z,1.36
2023-05-02T00:39:38.662Z,1.28
2023-05-02T00:40:38.712Z,1.27
2023-05-02T00:41:38.777Z,1.23
2023-05-02T00:42:38.815Z,1.54
2023-05-02T00:43:38.886Z,1.32
2023-05-02T00:44:38.944Z,1.36
2023-05-02T00:45:39.024Z,1.18
2023-05-02T00:46:39.151Z,1.35
2023-05-02T00:47:39.118Z,1.16
2023-05-02T00:48:39.181Z,1.67
2023-05-02T00:49:39.245Z,1.42
2023-05-02T00:50:39.297Z,1.22
2023-05-02T00:51:39.436Z,1.19
2023-05-02T00:52:39.416Z,1.38
2023-05-02T00:53:39.484Z,1.13
2023-05-02T00:54:39.550Z,0.97
2023-05-02T00:55:39.637Z,0.92
2023-05-02T00:56:39.622Z,1.04
2023-05-02T00:57:39.740Z,1.23
2023-05-02T00:58:39.731Z,1.25
2023-05-02T00:59:39.776Z,1.12
2023-05-02T01:00:39.819Z,1.16
2023-05-02T01:01:39.890Z,0.98
2023-05-02T01:02:39.936Z,1.20
2023-05-02T01:03:40.075Z,1.04
2023-05-02T01:04:39.987Z,1.17
2023-05-02T01:05:39.975Z,1.23
2023-05-02T01:06:40.075Z,1.23
2023-05-02T01:07:40.013Z,1.12
2023-05-02T01:08:40.135Z,1.17
2023-05-02T01:09:40.175Z,1.06
2023-05-02T01:10:40.144Z,1.08
2023-05-02T01:11:40.213Z,1.20
2023-05-02T01:12:40.274Z,1.46
2023-05-02T01:13:40.332Z,1.29
2023-05-02T01:14:40.603Z,1.01
2023-05-02T01:15:40.478Z,1.13
2023-05-02T01:16:40.650Z,1.06
2023-05-02T01:17:40.589Z,1.30
2023-05-02T01:18:40.612Z,1.20
2023-05-02T01:19:40.677Z,1.35
2023-05-02T01:20:41.596Z,1.13
2023-05-02T01:21:40.791Z,1.13
2023-05-02T01:22:40.850Z,1.11
2023-05-02T01:23:40.894Z,1.31
2023-05-02T01:24:40.959Z,1.27
2023-05-02T01:25:40.990Z,1.20
2023-05-02T01:26:41.082Z,0.96
2023-05-02T01:27:41.094Z,1.15
2023-05-02T01:28:41.149Z,1.06
2023-05-02T01:29:41.608Z,0.99
2023-05-02T01:30:41.264Z,1.54
2023-05-02T01:31:41.317Z,1.47
2023-05-02T01:32:41.406Z,1.10
2023-05-02T01:33:42.100Z,1.38
2023-05-02T01:34:41.383Z,1.00
2023-05-02T01:35:41.394Z,1.02
2023-05-02T01:36:41.398Z,1.13
2023-05-02T01:37:41.403Z,1.22
2023-05-02T01:38:41.406Z,1.24
2023-05-02T01:39:41.422Z,1.38
2023-05-02T01:40:41.467Z,1.28
2023-05-02T01:41:41.503Z,1.29
2023-05-02T01:42:41.529Z,1.07
2023-05-02T01:43:41.580Z,1.17
2023-05-02T01:44:41.624Z,1.07
2023-05-02T01:45:41.675Z,1.08
2023-05-02T01:46:41.758Z,0.88
2023-05-02T01:47:41.793Z,1.13
2023-05-02T01:48:41.839Z,1.19
2023-05-02T01:49:41.825Z,1.02
2023-05-02T01:50:41.849Z,1.56
2023-05-02T01:51:41.913Z,1.06
2023-05-02T01:52:41.943Z,0.97
2023-05-02T01:53:41.984Z,1.12
2023-05-02T01:54:42.004Z,1.24
2023-05-02T01:55:42.048Z,1.09
2023-05-02T01:56:42.068Z,1.15
2023-05-02T01:57:42.083Z,0.97
2023-05-02T01:58:42.111Z,1.23
2023-05-02T01:59:42.162Z,1.04
2023-05-02T02:00:42.270Z,1.28
2023-05-02T02:01:42.275Z,1.18
2023-05-02T02:02:42.266Z,1.52
2023-05-02T02:03:42.384Z,1.03
2023-05-02T02:04:42.405Z,0.89
2023-05-02T02:05:42.367Z,1.24
2023-05-02T02:06:42.507Z,1.14
2023-05-02T02:07:42.423Z,1.20
2023-05-02T02:08:42.451Z,1.30
2023-05-02T02:09:42.475Z,1.08
2023-05-02T02:10:42.508Z,1.10
2023-05-02T02:11:42.531Z,1.15
2023-05-02T02:12:42.542Z,1.30
2023-05-02T02:13:42.563Z,1.20
2023-05-02T02:14:42.604Z,1.12
2023-05-02T02:15:42.648Z,1.24
2023-05-02T02:16:42.759Z,1.06
2023-05-02T02:17:42.790Z,1.30
2023-05-02T02:18:42.787Z,1.16
2023-05-02T02:19:42.818Z,1.20
2023-05-02T02:20:42.861Z,1.00
2023-05-02T02:21:42.878Z,1.45
2023-05-02T02:22:42.927Z,1.03
2023-05-02T02:23:42.948Z,1.31
2023-05-02T02:24:42.998Z,1.40
2023-05-02T02:25:43.036Z,1.17
2023-05-02T02:26:43.079Z,0.96
2023-05-02T02:27:43.122Z,1.04
2023-05-02T02:28:43.260Z,1.38
2023-05-02T02:29:43.182Z,1.16
2023-05-02T02:30:43.207Z,1.20
2023-05-02T02:31:43.257Z,1.20
2023-05-02T02:32:43.269Z,1.11
2023-05-02T02:33:43.243Z,1.19
2023-05-02T02:34:43.270Z,1.16
2023-05-02T02:35:43.288Z,1.01
2023-05-02T02:36:43.298Z,1.17
2023-05-02T02:37:43.326Z,1.16
2023-05-02T02:38:43.361Z,1.29
2023-05-02T02:39:43.395Z,1.12
2023-05-02T02:40:43.429Z,1.03
2023-05-02T02:41:43.457Z,1.25
2023-05-02T02:42:43.503Z,1.10
2023-05-02T02:43:43.528Z,1.09
2023-05-02T02:44:43.553Z,1.01
2023-05-02T02:45:43.566Z,1.19
2023-05-02T02:46:43.660Z,1.10
2023-05-02T02:47:43.691Z,0.89
2023-05-02T02:48:43.653Z,1.06
2023-05-02T02:49:43.705Z,1.11
2023-05-02T02:50:43.717Z,1.14
2023-05-02T02:51:43.764Z,0.93
2023-05-02T02:52:43.704Z,1.07
2023-05-02T02:53:43.714Z,1.10
2023-05-02T02:54:43.743Z,1.21
2023-05-02T02:55:43.758Z,1.19
2023-05-02T02:56:43.783Z,1.02
2023-05-02T02:57:43.793Z,1.10
2023-05-02T02:58:43.857Z,1.25
2023-05-02T02:59:44.140Z,1.30
2023-05-02T03:00:43.786Z,1.06
2023-05-02T03:01:43.835Z,1.18
2023-05-02T03:02:43.862Z,1.40
2023-05-02T03:03:43.826Z,0.86
2023-05-02T03:04:43.777Z,1.08
2023-05-02T03:05:43.805Z,1.14
2023-05-02T03:06:43.818Z,1.16
2023-05-02T03:07:43.808Z,0.89
2023-05-02T03:08:43.842Z,1.22
2023-05-02T03:09:43.869Z,1.00
2023-05-02T03:10:43.898Z,1.11
2023-05-02T03:11:43.931Z,1.03
2023-05-02T03:12:43.974Z,1.19
2023-05-02T03:13:44.014Z,0.77
2023-05-02T03:14:44.061Z,0.95
2023-05-02T03:15:44.125Z,1.06
2023-05-02T03:16:44.261Z,0.97
2023-05-02T03:17:44.380Z,1.06
2023-05-02T03:18:44.300Z,0.97
2023-05-02T03:19:44.367Z,1.18
2023-05-02T03:20:45.142Z,1.10
2023-05-02T03:21:44.482Z,1.28
2023-05-02T03:22:44.534Z,1.02
2023-05-02T03:23:45.155Z,1.01
2023-05-02T03:24:44.659Z,0.97
2023-05-02T03:25:44.704Z,1.50
2023-05-02T03:26:44.763Z,1.25
2023-05-02T03:27:44.855Z,0.92
2023-05-02T03:28:44.928Z,1.27
2023-05-02T03:29:44.912Z,0.90
2023-05-02T03:30:44.959Z,1.25
2023-05-02T03:31:45.186Z,0.98
2023-05-02T03:32:45.085Z,1.01
2023-05-02T03:33:45.120Z,0.92
2023-05-02T03:34:45.179Z,0.91
2023-05-02T03:35:45.216Z,1.07
2023-05-02T03:36:45.289Z,0.81
2023-05-02T03:37:45.395Z,1.19
2023-05-02T03:38:45.359Z,0.98
2023-05-02T03:39:45.415Z,1.35
2023-05-02T03:40:45.456Z,0.89
2023-05-02T03:41:45.495Z,1.07
2023-05-02T03:42:45.533Z,1.28
2023-05-02T03:43:45.592Z,0.78
2023-05-02T03:44:45.620Z,1.07
2023-05-02T03:45:47.049Z,1.28
2023-05-02T03:46:45.717Z,1.09
2023-05-02T03:47:45.799Z,1.25
2023-05-02T03:48:45.644Z,1.15
2023-05-02T03:49:45.643Z,0.88
2023-05-02T03:50:45.628Z,0.95
2023-05-02T03:51:45.641Z,1.20
2023-05-02T03:52:45.619Z,0.99
2023-05-02T03:53:45.603Z,1.19
2023-05-02T03:54:45.604Z,1.17
2023-05-02T03:55:45.608Z,1.01
2023-05-02T03:56:45.585Z,1.06
2023-05-02T03:57:45.570Z,1.30
2023-05-02T03:58:45.574Z,1.04
2023-05-02T03:59:45.562Z,1.11
2023-05-02T04:00:45.563Z,1.00
2023-05-02T04:01:45.593Z,1.55
2023-05-02T04:02:45.664Z,1.10
2023-05-02T04:03:46.214Z,1.05
2023-05-02T04:04:45.564Z,1.07
2023-05-02T04:05:45.549Z,0.98
2023-05-02T04:06:45.596Z,0.93
2023-05-02T04:07:45.512Z,1.04
2023-05-02T04:08:45.512Z,0.92
2023-05-02T04:09:45.508Z,0.83
2023-05-02T04:10:45.496Z,0.85
2023-05-02T04:11:45.487Z,1.09
2023-05-02T04:12:45.468Z,0.95
2023-05-02T04:13:45.476Z,0.79
2023-05-02T04:14:45.463Z,1.23
2023-05-02T04:15:45.476Z,0.90
2023-05-02T04:16:46.235Z,0.89
2023-05-02T04:17:45.503Z,1.26
2023-05-02T04:18:45.440Z,1.15
2023-05-02T04:19:45.432Z,1.20
2023-05-02T04:20:45.427Z,1.10
2023-05-02T04:21:45.413Z,1.09
2023-05-02T04:22:45.400Z,1.03
2023-05-02T04:23:45.460Z,0.96
2023-05-02T04:24:45.469Z,1.06
2023-05-02T04:25:45.375Z,0.94
2023-05-02T04:26:45.383Z,1.22
2023-05-02T04:27:45.385Z,0.95
2023-05-02T04:28:45.364Z,0.89
2023-05-02T04:29:45.369Z,0.88
2023-05-02T04:30:45.497Z,1.15
2023-05-02T04:31:45.359Z,1.02
2023-05-02T04:32:45.405Z,1.08
2023-05-02T04:33:45.343Z,1.18
2023-05-02T04:34:45.346Z,1.26
2023-05-02T04:35:45.433Z,0.86
2023-05-02T04:36:45.449Z,0.72
2023-05-02T04:37:45.485Z,0.88
2023-05-02T04:38:45.525Z,1.23
2023-05-02T04:39:45.575Z,1.17
2023-05-02T04:40:45.609Z,1.11
2023-05-02T04:41:45.659Z,0.99
2023-05-02T04:42:45.683Z,1.00
2023-05-02T04:43:45.721Z,1.23
2023-05-02T04:44:45.775Z,1.01
2023-05-02T04:45:45.808Z,1.10
2023-05-02T04:46:46.014Z,0.90
2023-05-02T04:47:46.051Z,0.84
2023-05-02T04:48:45.936Z,0.87
2023-05-02T04:49:45.968Z,0.80
2023-05-02T04:50:46.009Z,0.99
2023-05-02T04:51:46.061Z,0.86
2023-05-02T04:52:46.085Z,1.05
2023-05-02T04:53:46.134Z,1.00
2023-05-02T04:54:46.170Z,1.08
2023-05-02T04:55:46.209Z,0.98
2023-05-02T04:56:46.226Z,1.23
2023-05-02T04:57:46.270Z,0.95
2023-05-02T04:58:46.304Z,0.81
2023-05-02T04:59:46.342Z,0.87
2023-05-02T05:00:46.375Z,1.19
2023-05-02T05:01:46.502Z,0.93
2023-05-02T05:02:46.541Z,1.07
2023-05-02T05:03:46.566Z,0.90
2023-05-02T05:04:46.518Z,1.02
2023-05-02T05:05:46.653Z,0.94
2023-05-02T05:06:46.686Z,1.19
2023-05-02T05:07:46.629Z,1.17
2023-05-02T05:08:46.662Z,1.06
2023-05-02T05:09:46.715Z,1.06
2023-05-02T05:10:46.751Z,0.78
2023-05-02T05:11:46.789Z,1.45
2023-05-02T05:12:46.818Z,0.68
2023-05-02T05:13:46.948Z,1.01
2023-05-02T05:14:46.914Z,1.04
2023-05-02T05:15:46.997Z,0.98
2023-05-02T05:16:47.143Z,1.27
2023-05-02T05:17:47.121Z,1.22
2023-05-02T05:18:47.085Z,1.18
2023-05-02T05:19:47.129Z,0.83
2023-05-02T05:20:47.158Z,1.31
2023-05-02T05:21:47.199Z,1.19
2023-05-02T05:22:47.319Z,0.83
2023-05-02T05:23:47.260Z,1.08
2023-05-02T05:24:47.298Z,0.77
2023-05-02T05:25:47.330Z,1.06
2023-05-02T05:26:47.354Z,0.92
2023-05-02T05:27:47.388Z,1.10
2023-05-02T05:28:47.420Z,0.90
2023-05-02T05:29:47.454Z,1.41
2023-05-02T05:30:47.472Z,1.12
2023-05-02T05:31:47.507Z,1.18
2023-05-02T05:32:47.581Z,1.13
2023-05-02T05:33:47.676Z,1.27
2023-05-02T05:34:50.201Z,0.92
2023-05-02T05:35:47.917Z,1.44
2023-05-02T05:36:47.858Z,1.05
2023-05-02T05:37:47.899Z,0.87
2023-05-02T05:38:47.921Z,1.10
2023-05-02T05:39:47.951Z,1.08
2023-05-02T05:40:47.969Z,1.03
2023-05-02T05:41:47.993Z,1.21
2023-05-02T05:42:48.021Z,1.04
2023-05-02T05:43:48.060Z,1.02
2023-05-02T05:44:48.104Z,1.15
2023-05-02T05:45:48.734Z,1.27
2023-05-02T05:46:48.178Z,1.20
2023-05-02T05:47:48.206Z,1.49
2023-05-02T05:48:48.198Z,1.28
2023-05-02T05:49:48.258Z,1.29
2023-05-02T05:50:49.308Z,2.83
2023-05-02T05:51:48.307Z,1.21
2023-05-02T05:52:48.334Z,1.07
2023-05-02T05:53:48.368Z,1.17
2023-05-02T05:54:48.543Z,1.12
2023-05-02T05:55:48.453Z,1.12
2023-05-02T05:56:48.574Z,0.85
2023-05-02T05:57:48.520Z,1.42
2023-05-02T05:58:49.214Z,0.91
2023-05-02T05:59:48.602Z,1.23
2023-05-02T06:00:48.676Z,0.98
2023-05-02T06:01:48.660Z,1.29
2023-05-02T06:02:48.858Z,1.25
2023-05-02T06:03:48.912Z,1.23
2023-05-02T06:04:48.811Z,0.88
2023-05-02T06:05:48.781Z,1.25
2023-05-02T06:06:48.860Z,0.98
2023-05-02T06:07:48.868Z,0.71
2023-05-02T06:08:48.906Z,1.02
2023-05-02T06:09:48.940Z,1.10
2023-05-02T06:10:49.001Z,0.99
2023-05-02T06:11:49.015Z,1.14
2023-05-02T06:12:49.458Z,1.14
2023-05-02T06:13:49.097Z,1.05
2023-05-02T06:14:49.140Z,0.96
2023-05-02T06:15:49.184Z,1.16
2023-05-02T06:16:49.212Z,2.22
2023-05-02T06:17:49.272Z,1.01
2023-05-02T06:18:49.285Z,0.92
2023-05-02T06:19:49.730Z,1.09
2023-05-02T06:20:49.362Z,1.07
2023-05-02T06:21:49.397Z,1.22
2023-05-02T06:22:49.453Z,1.25
2023-05-02T06:23:49.476Z,0.97
2023-05-02T06:24:49.513Z,0.97
2023-05-02T06:25:50.226Z,1.20
2023-05-02T06:26:49.590Z,1.10
2023-05-02T06:27:49.695Z,1.37
2023-05-02T06:28:49.682Z,1.12
2023-05-02T06:29:49.728Z,1.30
2023-05-02T06:30:49.763Z,1.23
2023-05-02T06:31:49.821Z,1.07
2023-05-02T06:32:50.083Z,1.15
2023-05-02T06:33:49.884Z,1.42
2023-05-02T06:34:49.892Z,1.20
2023-05-02T06:35:50.744Z,1.09
2023-05-02T06:36:49.888Z,1.34
2023-05-02T06:37:49.861Z,1.21
2023-05-02T06:38:49.843Z,1.25
2023-05-02T06:39:49.841Z,1.06
2023-05-02T06:40:49.834Z,1.14
2023-05-02T06:41:49.828Z,1.11
2023-05-02T06:42:49.825Z,1.38
2023-05-02T06:43:49.814Z,0.93
2023-05-02T06:44:49.847Z,0.99
2023-05-02T06:45:49.886Z,1.00
2023-05-02T06:46:49.992Z,1.04
2023-05-02T06:47:49.999Z,1.13
2023-05-02T06:48:50.649Z,1.07
2023-05-02T06:49:50.100Z,0.78
2023-05-02T06:50:50.076Z,1.11
2023-05-02T06:51:50.110Z,0.83
2023-05-02T06:52:50.151Z,1.10
2023-05-02T06:53:50.206Z,1.17
2023-05-02T06:54:50.218Z,1.17
2023-05-02T06:55:51.243Z,1.21
2023-05-02T06:56:50.298Z,1.22
2023-05-02T06:57:50.332Z,1.20
2023-05-02T06:58:50.445Z,1.77
2023-05-02T06:59:50.394Z,1.16
2023-05-02T07:00:50.503Z,1.30
2023-05-02T07:01:50.471Z,1.06
2023-05-02T07:02:50.534Z,0.79
2023-05-02T07:03:50.603Z,1.24
2023-05-02T07:04:50.586Z,1.05
2023-05-02T07:05:50.618Z,0.94
2023-05-02T07:06:50.763Z,1.18
2023-05-02T07:07:50.712Z,1.11
2023-05-02T07:08:50.719Z,1.00
2023-05-02T07:09:50.753Z,1.27
2023-05-02T07:10:50.782Z,1.17
2023-05-02T07:11:51.656Z,1.15
2023-05-02T07:12:50.845Z,1.17
2023-05-02T07:13:50.874Z,1.13
2023-05-02T07:14:50.896Z,1.32
2023-05-02T07:15:50.925Z,1.20
2023-05-02T07:16:51.057Z,1.26
2023-05-02T07:17:51.069Z,1.02
2023-05-02T07:18:51.018Z,1.28
2023-05-02T07:19:51.045Z,1.51
2023-05-02T07:20:51.058Z,1.01
2023-05-02T07:21:51.074Z,1.28
2023-05-02T07:22:51.087Z,1.29
2023-05-02T07:23:51.113Z,1.16
2023-05-02T07:24:51.124Z,1.64
2023-05-02T07:25:51.218Z,1.18
2023-05-02T07:26:51.139Z,1.50
2023-05-02T07:27:51.168Z,1.73
2023-05-02T07:28:52.205Z,1.46
2023-05-02T07:29:51.741Z,1.63
2023-05-02T07:30:51.204Z,1.57
2023-05-02T07:31:51.264Z,1.51
2023-05-02T07:32:51.222Z,1.66
2023-05-02T07:33:51.745Z,1.76
2023-05-02T07:34:51.223Z,1.88
2023-05-02T07:35:51.252Z,1.70
2023-05-02T07:36:51.303Z,1.68
2023-05-02T07:37:51.359Z,1.92
2023-05-02T07:38:51.414Z,1.83
2023-05-02T07:39:51.481Z,2.30
2023-05-02T07:40:51.542Z,2.53
2023-05-02T07:41:51.600Z,1.96
2023-05-02T07:42:51.734Z,2.63
2023-05-02T07:43:51.690Z,2.84
2023-05-02T07:44:51.756Z,2.25
2023-05-02T07:45:51.807Z,2.67
2023-05-02T07:46:51.835Z,3.80
2023-05-02T07:47:51.941Z,4.79
2023-05-02T07:48:51.913Z,4.35
2023-05-02T07:49:51.960Z,6.38
2023-05-02T07:50:51.981Z,4.78
2023-05-02T07:51:52.031Z,8.46
2023-05-02T07:52:52.037Z,7.40
2023-05-02T07:53:52.067Z,7.83
2023-05-02T07:54:52.091Z,6.21
2023-05-02T07:55:52.107Z,6.66
2023-05-02T07:56:52.137Z,6.75
2023-05-02T07:57:52.185Z,9.45
2023-05-02T07:58:52.182Z,6.61
2023-05-02T07:59:52.205Z,7.53
2023-05-02T08:00:52.764Z,6.89
2023-05-02T08:01:53.181Z,7.37
2023-05-02T08:02:52.404Z,7.45
2023-05-02T08:03:52.582Z,9.66
2023-05-02T08:04:52.426Z,8.55
2023-05-02T08:05:52.298Z,8.44
2023-05-02T08:06:52.536Z,8.70
2023-05-02T08:07:52.312Z,9.68
2023-05-02T08:08:52.298Z,10.13
2023-05-02T08:09:52.288Z,8.94
2023-05-02T08:10:52.304Z,10.66
2023-05-02T08:11:52.311Z,10.11
2023-05-02T08:12:52.307Z,9.57
2023-05-02T08:13:52.313Z,9.47
2023-05-02T08:14:52.308Z,9.60
2023-05-02T08:15:52.373Z,9.29
2023-05-02T08:16:52.446Z,7.68
2023-05-02T08:17:52.450Z,6.50
2023-05-02T08:18:52.390Z,3.71
2023-05-02T08:19:52.410Z,3.71
2023-05-02T08:20:52.617Z,3.51
2023-05-02T08:21:52.497Z,2.94
2023-05-02T08:22:52.552Z,4.15
2023-05-02T08:23:52.616Z,3.76
2023-05-02T08:24:52.673Z,3.68
2023-05-02T08:25:52.737Z,3.36
2023-05-02T08:26:52.800Z,4.00
2023-05-02T08:27:52.856Z,2.63
2023-05-02T08:28:52.911Z,2.91
2023-05-02T08:29:52.955Z,2.18
2023-05-02T08:30:52.995Z,2.44
2023-05-02T08:31:53.053Z,2.42
2023-05-02T08:32:53.066Z,2.34
2023-05-02T08:33:53.029Z,2.25
2023-05-02T08:34:53.075Z,2.39
2023-05-02T08:35:53.134Z,3.19
2023-05-02T08:36:53.183Z,2.72
2023-05-02T08:37:53.230Z,3.83
2023-05-02T08:38:53.245Z,3.32
2023-05-02T08:39:53.289Z,3.05
2023-05-02T08:40:53.296Z,2.76
2023-05-02T08:41:53.324Z,2.61
2023-05-02T08:42:53.426Z,3.42
2023-05-02T08:43:53.344Z,2.26
2023-05-02T08:44:53.357Z,3.16
2023-05-02T08:45:53.378Z,3.08
2023-05-02T08:46:53.508Z,3.22
2023-05-02T08:47:53.544Z,2.46
2023-05-02T08:48:53.478Z,3.33
2023-05-02T08:49:53.492Z,2.81
2023-05-02T08:50:53.512Z,3.64
2023-05-02T08:51:53.484Z,2.31
2023-05-02T08:52:53.539Z,2.71
2023-05-02T08:53:53.594Z,2.71
2023-05-02T08:54:53.658Z,2.74
2023-05-02T08:55:53.714Z,2.86
2023-05-02T08:56:53.779Z,2.62
2023-05-02T08:57:53.824Z,2.45
2023-05-02T08:58:53.871Z,2.11
2023-05-02T08:59:53.915Z,3.45
2023-05-02T09:00:54.791Z,2.58
2023-05-02T09:01:53.979Z,3.18
2023-05-02T09:02:54.110Z,2.48
2023-05-02T09:03:54.104Z,2.35
2023-05-02T09:04:54.083Z,2.86
2023-05-02T09:05:54.782Z,2.28
2023-05-02T09:06:54.198Z,2.69
2023-05-02T09:07:54.149Z,2.67
2023-05-02T09:08:54.167Z,2.73
2023-05-02T09:09:54.187Z,3.18
2023-05-02T09:10:54.195Z,3.16
2023-05-02T09:11:54.194Z,3.49
2023-05-02T09:12:54.218Z,3.01
2023-05-02T09:13:54.233Z,4.93
2023-05-02T09:14:54.246Z,4.84
2023-05-02T09:15:54.799Z,5.12
2023-05-02T09:16:54.330Z,4.35
2023-05-02T09:17:54.336Z,4.20
2023-05-02T09:18:54.272Z,4.65
2023-05-02T09:19:54.271Z,4.30
2023-05-02T09:20:55.261Z,4.06
2023-05-02T09:21:54.263Z,4.31
2023-05-02T09:22:54.300Z,5.67
2023-05-02T09:23:54.285Z,5.39
2023-05-02T09:24:54.244Z,5.17
2023-05-02T09:25:54.224Z,6.02
2023-05-02T09:26:54.222Z,4.37
2023-05-02T09:27:54.280Z,5.76
2023-05-02T09:28:54.221Z,6.03
2023-05-02T09:29:54.201Z,4.32
2023-05-02T09:30:54.324Z,5.15
2023-05-02T09:31:56.057Z,6.92
2023-05-02T09:32:54.313Z,5.27
2023-05-02T09:33:54.354Z,5.64
2023-05-02T09:34:54.415Z,5.31
2023-05-02T09:35:54.472Z,6.64
2023-05-02T09:36:54.851Z,5.50
2023-05-02T09:37:54.667Z,5.63
2023-05-02T09:38:54.648Z,5.45
2023-05-02T09:39:54.704Z,6.18
2023-05-02T09:40:55.301Z,5.22
2023-05-02T09:41:55.022Z,5.53
2023-05-02T09:42:54.859Z,5.20
2023-05-02T09:43:54.905Z,6.03
2023-05-02T09:44:54.972Z,4.45
2023-05-02T09:45:55.052Z,4.51
2023-05-02T09:46:55.069Z,4.51
2023-05-02T09:47:55.287Z,5.76
2023-05-02T09:48:55.138Z,5.06
2023-05-02T09:49:55.176Z,5.27
2023-05-02T09:50:55.223Z,5.36
2023-05-02T09:51:55.261Z,4.69
2023-05-02T09:52:55.316Z,5.73
2023-05-02T09:53:55.357Z,5.32
2023-05-02T09:54:55.402Z,7.35
2023-05-02T09:55:55.451Z,6.64
2023-05-02T09:56:55.506Z,3.96
2023-05-02T09:57:55.573Z,4.91
2023-05-02T09:58:55.627Z,4.91
2023-05-02T09:59:55.673Z,5.39
2023-05-02T10:00:55.708Z,3.19
2023-05-02T10:01:55.741Z,3.69
2023-05-02T10:02:55.782Z,3.85
2023-05-02T10:03:55.840Z,3.63
2023-05-02T10:04:55.818Z,3.16
2023-05-02T10:05:55.920Z,3.17
2023-05-02T10:06:56.829Z,4.43
2023-05-02T10:07:56.008Z,3.93
2023-05-02T10:08:56.064Z,3.37
2023-05-02T10:09:56.130Z,3.59
2023-05-02T10:10:56.157Z,3.88
2023-05-02T10:11:56.217Z,3.52
2023-05-02T10:12:56.240Z,4.06
2023-05-02T10:13:56.290Z,3.35
2023-05-02T10:14:57.442Z,3.65
2023-05-02T10:15:56.426Z,3.22
2023-05-02T10:16:56.412Z,3.50
2023-05-02T10:17:56.501Z,3.30
2023-05-02T10:18:56.516Z,3.36
2023-05-02T10:19:56.554Z,3.21
2023-05-02T10:20:56.703Z,3.04
2023-05-02T10:21:56.648Z,3.99
2023-05-02T10:22:56.704Z,2.61
2023-05-02T10:23:56.745Z,4.10
2023-05-02T10:24:57.362Z,3.25
2023-05-02T10:25:58.180Z,3.96
2023-05-02T10:26:57.028Z,3.72
2023-05-02T10:27:57.075Z,2.84
2023-05-02T10:28:57.115Z,3.36
2023-05-02T10:29:57.224Z,3.72
2023-05-02T10:30:57.223Z,4.06
2023-05-02T10:31:57.321Z,3.64
2023-05-02T10:32:57.325Z,5.19
2023-05-02T10:33:57.380Z,3.31
2023-05-02T10:34:57.460Z,3.75
2023-05-02T10:35:58.324Z,3.53
2023-05-02T10:36:57.538Z,3.32
2023-05-02T10:37:58.338Z,2.95
2023-05-02T10:38:57.652Z,3.11
2023-05-02T10:39:57.723Z,3.41
2023-05-02T10:40:57.781Z,3.27
2023-05-02T10:41:57.839Z,3.34
2023-05-02T10:42:57.902Z,2.99
2023-05-02T10:43:57.957Z,2.88
2023-05-02T10:44:58.344Z,2.87
2023-05-02T10:45:58.078Z,3.41
2023-05-02T10:46:58.267Z,2.85
2023-05-02T10:47:58.303Z,3.14
2023-05-02T10:48:58.252Z,3.12
2023-05-02T10:49:58.312Z,2.93
2023-05-02T10:50:58.381Z,2.41
2023-05-02T10:51:58.423Z,2.50
2023-05-02T10:52:58.493Z,3.21
2023-05-02T10:53:58.548Z,2.55
2023-05-02T10:54:58.685Z,3.88
2023-05-02T10:55:58.686Z,3.46
2023-05-02T10:56:58.749Z,3.14
2023-05-02T10:57:58.861Z,3.52
2023-05-02T10:58:58.847Z,3.46
2023-05-02T10:59:59.340Z,2.65
2023-05-02T11:00:58.987Z,3.04
2023-05-02T11:01:59.054Z,2.73
2023-05-02T11:02:59.274Z,3.17
2023-05-02T11:03:59.154Z,3.00
2023-05-02T11:04:59.372Z,3.05
2023-05-02T11:05:59.283Z,2.58
2023-05-02T11:06:59.367Z,3.12
2023-05-02T11:07:59.388Z,3.12
2023-05-02T11:08:59.438Z,2.72
2023-05-02T11:09:59.504Z,3.13
2023-05-02T11:10:59.588Z,3.47
2023-05-02T11:11:59.612Z,2.86
2023-05-02T11:12:59.678Z,2.53
2023-05-02T11:13:59.733Z,2.71
2023-05-02T11:15:00.000Z,3.23
2023-05-02T11:15:59.875Z,3.35
2023-05-02T11:17:00.029Z,2.96
2023-05-02T11:18:00.035Z,3.57
2023-05-02T11:19:00.066Z,3.26
2023-05-02T11:20:00.739Z,2.62
2023-05-02T11:21:00.136Z,4.63
2023-05-02T11:22:00.192Z,2.42
2023-05-02T11:23:00.196Z,2.46
2023-05-02T11:24:00.232Z,3.58
2023-05-02T11:25:00.546Z,2.83
2023-05-02T11:26:00.305Z,2.87
2023-05-02T11:27:00.328Z,3.18
2023-05-02T11:28:00.368Z,2.39
2023-05-02T11:29:00.405Z,2.62
2023-05-02T11:30:00.459Z,2.50
2023-05-02T11:31:00.444Z,2.73
2023-05-02T11:32:00.489Z,3.00
2023-05-02T11:33:00.535Z,2.25
2023-05-02T11:34:01.359Z,2.65
2023-05-02T11:35:00.717Z,2.50
2023-05-02T11:36:00.530Z,2.80
2023-05-02T11:37:00.535Z,3.16
2023-05-02T11:38:00.526Z,2.77
2023-05-02T11:39:00.537Z,2.53
2023-05-02T11:40:00.545Z,2.37
2023-05-02T11:41:00.565Z,2.78
2023-05-02T11:42:00.570Z,2.66
2023-05-02T11:43:01.252Z,2.83
2023-05-02T11:44:01.066Z,3.17
2023-05-02T11:45:01.123Z,3.05
2023-05-02T11:46:00.775Z,2.49
2023-05-02T11:47:00.690Z,2.07
2023-05-02T11:48:00.655Z,2.72
2023-05-02T11:49:00.662Z,2.49
2023-05-02T11:50:00.736Z,3.66
2023-05-02T11:51:00.710Z,3.15
2023-05-02T11:52:00.649Z,2.56
2023-05-02T11:53:00.683Z,2.81
2023-05-02T11:54:00.723Z,3.37
2023-05-02T11:55:00.887Z,3.95
2023-05-02T11:56:01.429Z,3.81
2023-05-02T11:57:00.797Z,3.00
2023-05-02T11:58:00.824Z,2.97
2023-05-02T11:59:00.860Z,3.44
2023-05-02T12:00:01.214Z,3.79
2023-05-02T12:01:00.924Z,3.47
2023-05-02T12:02:00.953Z,3.09
2023-05-02T12:03:01.067Z,2.99
2023-05-02T12:04:01.154Z,3.21
2023-05-02T12:05:01.288Z,2.95
2023-05-02T12:06:01.178Z,2.85
2023-05-02T12:07:01.171Z,3.06
2023-05-02T12:08:01.123Z,3.37
2023-05-02T12:09:01.151Z,2.79
2023-05-02T12:10:01.170Z,2.81
2023-05-02T12:11:01.198Z,2.94
2023-05-02T12:12:01.216Z,3.05
2023-05-02T12:13:01.259Z,3.01
2023-05-02T12:14:01.268Z,2.45
2023-05-02T12:15:01.561Z,3.00
2023-05-02T12:16:01.346Z,2.40
2023-05-02T12:17:01.340Z,2.75
2023-05-02T12:18:01.385Z,2.65
2023-05-02T12:19:01.468Z,2.75
2023-05-02T12:20:01.417Z,3.14
2023-05-02T12:21:01.414Z,2.66
2023-05-02T12:22:01.437Z,3.24
2023-05-02T12:23:01.455Z,3.37
2023-05-02T12:24:01.484Z,3.30
2023-05-02T12:25:01.788Z,3.48
2023-05-02T12:26:01.522Z,3.13
2023-05-02T12:27:01.547Z,3.13
2023-05-02T12:28:01.582Z,2.55
2023-05-02T12:29:01.607Z,3.13
2023-05-02T12:30:02.956Z,2.78
2023-05-02T12:31:01.643Z,2.78
2023-05-02T12:32:01.619Z,2.62
2023-05-02T12:33:01.631Z,3.25
2023-05-02T12:34:01.733Z,2.51
2023-05-02T12:35:01.567Z,2.57
2023-05-02T12:36:01.560Z,3.07
2023-05-02T12:37:01.558Z,2.43
2023-05-02T12:38:01.569Z,2.54
2023-05-02T12:39:01.588Z,2.16
2023-05-02T12:40:01.725Z,2.52
2023-05-02T12:41:01.610Z,2.46
2023-05-02T12:42:01.517Z,2.59
2023-05-02T12:43:01.518Z,2.43
2023-05-02T12:44:01.511Z,2.70
2023-05-02T12:45:01.549Z,2.37
2023-05-02T12:46:01.596Z,2.88
2023-05-02T12:47:01.692Z,2.36
2023-05-02T12:48:01.732Z,2.90
2023-05-02T12:49:01.716Z,2.36
2023-05-02T12:50:01.887Z,2.65
2023-05-02T12:51:01.797Z,2.36
2023-05-02T12:52:01.894Z,2.80
2023-05-02T12:53:01.887Z,2.43
2023-05-02T12:54:01.933Z,2.42
2023-05-02T12:55:01.971Z,3.09
2023-05-02T12:56:02.002Z,2.17
2023-05-02T12:57:02.906Z,2.40
2023-05-02T12:58:02.114Z,2.80
2023-05-02T12:59:02.134Z,2.83
2023-05-02T13:00:02.708Z,2.67
2023-05-02T13:01:02.246Z,2.05
2023-05-02T13:02:02.883Z,2.70
2023-05-02T13:03:02.485Z,2.47
2023-05-02T13:04:02.484Z,2.00
2023-05-02T13:05:02.407Z,2.57
2023-05-02T13:06:02.467Z,2.58
2023-05-02T13:07:02.529Z,2.50
2023-05-02T13:08:02.560Z,1.65
2023-05-02T13:09:02.617Z,2.59
2023-05-02T13:10:02.848Z,2.59
2023-05-02T13:11:02.698Z,2.29
2023-05-02T13:12:03.398Z,2.67
2023-05-02T13:13:02.809Z,2.64
2023-05-02T13:14:02.865Z,2.51
2023-05-02T13:15:02.945Z,2.94
2023-05-02T13:16:03.057Z,2.44
2023-05-02T13:17:03.120Z,2.87
2023-05-02T13:18:03.215Z,2.18
2023-05-02T13:19:03.121Z,2.21